Time;durP1;ratioP1;P1;durP2;ratioP2;P2;SDS_P1;SDS_P2;PMS_P1;PMS_P2;Temp;Humidity;BMP_temperature;BMP_pressure;BME280_temperature;BME280_humidity;BME280_pressure;Samples;Min_cycle;Max_cycle;Signal;HPM_P1;HPM_P2
2023/03/05 00:00:40;;;;;;;;;;;;;;;26.33;37.86;94331.78;4941950;28;7048;-62
2023/03/05 00:03:07;;;;;;;;;;;;;;;26.33;38.64;94331.78;4952087;28;8816;-63
2023/03/05 00:05:45;;;;;;;;;;;;;;;26.32;38.19;94336.53;4941938;28;9033;-62
2023/03/05 00:08:16;;;;;;;;;;;;;;;26.31;37.82;94334.31;4949208;28;8681;-63
2023/03/05 00:11:11;;;;;;;;;;;;;;;26.33;38.66;94332.53;4957001;28;7697;-62
2023/03/05 00:13:38;;;;;;;;;;;;;;;26.32;37.85;94333.78;4965204;28;9796;-62
2023/03/05 00:16:17;;;;;;;;;;;;;;;26.29;37.79;94331.31;4982984;28;9355;-62
2023/03/05 00:18:44;;;;;;;;;;;;;;;26.30;37.99;94335.56;4976331;28;9002;-62
2023/03/05 00:21:25;;;;;;;;;;;;;;;26.30;38.06;94322.53;4988785;28;8726;-62
2023/03/05 00:23:55;;;;;;;;;;;;;;;26.28;37.90;94330.56;4962408;28;8708;-62
2023/03/05 00:26:23;;;;;;;;;;;;;;;26.30;38.16;94335.56;4978835;28;7337;-62
2023/03/05 00:29:17;;;;;;;;;;;;;;;26.29;38.13;94337.59;4989077;28;8993;-62
2023/03/05 00:31:45;;;;;;;;;;;;;;;26.29;37.84;94332.06;4973971;28;8446;-62
2023/03/05 00:34:18;;;;;;;;;;;;;;;26.30;37.90;94338.31;4979927;28;7408;-62
2023/03/05 00:36:51;;;;;;;;;;;;;;;26.28;37.64;94327.06;4973540;28;7037;-62
2023/03/05 00:39:22;;;;;;;;;;;;;;;26.29;38.45;94325.81;4968868;28;9350;-62
2023/03/05 00:41:48;;;;;;;;;;;;;;;26.29;38.40;94325.81;4979813;28;7027;-62
2023/03/05 00:44:17;;;;;;;;;;;;;;;26.28;38.45;94327.06;4976313;28;7050;-63
2023/03/05 00:46:50;;;;;;;;;;;;;;;26.28;38.09;94327.06;4973323;28;9374;-62
2023/03/05 00:49:16;;;;;;;;;;;;;;;26.23;38.56;94322.38;4973581;28;9241;-62
2023/03/05 00:52:08;;;;;;;;;;;;;;;26.21;38.44;94331.13;4968918;28;7271;-62
2023/03/05 00:54:38;;;;;;;;;;;;;;;26.20;38.29;94326.16;4982580;28;7337;-62
2023/03/05 00:57:15;;;;;;;;;;;;;;;26.11;38.23;94327.22;4972718;28;9024;-62
2023/03/05 00:59:41;;;;;;;;;;;;;;;26.16;38.13;94318.91;4987829;28;9221;-62
2023/03/05 01:02:22;;;;;;;;;;;;;;;26.13;38.44;94317.19;4972458;28;7065;-62
2023/03/05 01:04:49;;;;;;;;;;;;;;;26.14;38.38;94320.69;4975684;28;7018;-62
2023/03/05 01:07:15;;;;;;;;;;;;;;;26.16;38.19;94323.69;4976630;28;7120;-63
2023/03/05 01:10:03;;;;;;;;;;;;;;;26.19;38.19;94317.13;4976086;28;7107;-62
2023/03/05 01:12:31;;;;;;;;;;;;;;;26.07;38.29;94305.44;4980990;28;7223;-62
2023/03/05 01:15:07;;;;;;;;;;;;;;;26.02;38.22;94309.00;4990098;28;7121;-62
2023/03/05 01:18:01;;;;;;;;;;;;;;;26.04;37.80;94305.72;4976241;28;7260;-62
2023/03/05 01:20:45;;;;;;;;;;;;;;;25.98;37.99;94305.03;4984742;28;8806;-62
2023/03/05 01:23:21;;;;;;;;;;;;;;;25.99;38.01;94292.75;4974671;28;7238;-62
2023/03/05 01:25:58;;;;;;;;;;;;;;;26.04;38.65;94292.69;4969630;28;8306;-63
2023/03/05 01:28:26;;;;;;;;;;;;;;;25.98;38.71;94294.75;4975214;28;7521;-62
2023/03/05 01:30:52;;;;;;;;;;;;;;;25.93;38.01;94301.06;4972959;28;7579;-62
2023/03/05 01:33:27;;;;;;;;;;;;;;;25.89;38.75;94283.31;4972300;28;7196;-62
2023/03/05 01:35:56;;;;;;;;;;;;;;;25.88;38.53;94288.06;4970670;28;9084;-62
2023/03/05 01:38:26;;;;;;;;;;;;;;;25.88;37.77;94285.31;4984829;28;7283;-62
2023/03/05 01:40:54;;;;;;;;;;;;;;;25.83;38.92;94274.34;4989357;28;7333;-61
2023/03/05 01:43:22;;;;;;;;;;;;;;;25.86;39.05;94278.84;4979022;28;8703;-62
2023/03/05 01:46:27;;;;;;;;;;;;;;;25.88;37.84;94282.56;4968728;28;7632;-62
2023/03/05 01:49:08;;;;;;;;;;;;;;;25.88;37.97;94270.81;4971871;28;9082;-62
2023/03/05 01:51:47;;;;;;;;;;;;;;;25.87;38.22;94270.06;4970890;28;9129;-63
2023/03/05 01:54:19;;;;;;;;;;;;;;;25.86;38.04;94276.09;4973926;28;9218;-62
2023/03/05 01:56:51;;;;;;;;;;;;;;;25.85;38.78;94260.81;4973324;28;7842;-62
2023/03/05 01:59:24;;;;;;;;;;;;;;;25.85;39.11;94260.81;4959242;28;7523;-62
2023/03/05 02:01:55;;;;;;;;;;;;;;;25.89;38.04;94253.75;4972408;28;8763;-63
2023/03/05 02:04:35;;;;;;;;;;;;;;;25.86;38.43;94263.03;5005245;28;7186;-62
2023/03/05 02:07:02;;;;;;;;;;;;;;;25.87;38.63;94256.28;4964157;28;7034;-62
2023/03/05 02:09:41;;;;;;;;;;;;;;;25.86;38.83;94249.25;4973897;28;7049;-62
2023/03/05 02:12:12;;;;;;;;;;;;;;;25.82;38.54;94243.28;4981572;28;7027;-62
2023/03/05 02:14:43;;;;;;;;;;;;;;;25.85;38.08;94245.03;4970028;28;9015;-63
2023/03/05 02:17:15;;;;;;;;;;;;;;;25.83;38.51;94247.56;4963743;28;7025;-62
2023/03/05 02:19:50;;;;;;;;;;;;;;;25.83;38.48;94247.56;4954456;28;7007;-62
2023/03/05 02:22:23;;;;;;;;;;;;;;;25.83;38.58;94242.03;4966095;28;9318;-62
2023/03/05 02:25:01;;;;;;;;;;;;;;;25.83;38.47;94241.28;4976250;28;9439;-62
2023/03/05 02:27:33;;;;;;;;;;;;;;;25.81;38.98;94233.56;4966470;28;7385;-63
2023/03/05 02:30:11;;;;;;;;;;;;;;;25.83;38.69;94241.28;4997021;28;7347;-62
2023/03/05 02:32:39;;;;;;;;;;;;;;;25.83;38.65;94236.53;4972952;28;9315;-63
2023/03/05 02:35:06;;;;;;;;;;;;;;;25.80;38.08;94232.03;4963553;28;7074;-63
2023/03/05 02:37:36;;;;;;;;;;;;;;;25.80;38.23;94228.53;4961301;28;7066;-62
2023/03/05 02:40:07;;;;;;;;;;;;;;;25.81;38.10;94222.53;4969124;28;9097;-63
2023/03/05 02:42:34;;;;;;;;;;;;;;;25.81;38.08;94225.28;4986878;28;9338;-62
2023/03/05 02:45:07;;;;;;;;;;;;;;;25.80;38.48;94229.28;4963891;28;7218;-62
2023/03/05 02:47:33;;;;;;;;;;;;;;;25.79;39.07;94222.31;4997806;28;9015;-62
2023/03/05 02:49:59;;;;;;;;;;;;;;;25.81;38.33;94230.03;4956547;28;8811;-62
2023/03/05 02:52:27;;;;;;;;;;;;;;;25.79;38.96;94230.56;4961951;28;7252;-62
2023/03/05 02:54:59;;;;;;;;;;;;;;;25.78;39.01;94215.28;4974863;28;7217;-62
2023/03/05 02:57:26;;;;;;;;;;;;;;;25.81;38.16;94217.03;4983510;28;9100;-62
2023/03/05 03:00:02;;;;;;;;;;;;;;;25.78;38.59;94215.28;4966230;28;7030;-62
2023/03/05 03:02:33;;;;;;;;;;;;;;;25.79;38.36;94214.03;4965135;28;7046;-62
2023/03/05 03:05:09;;;;;;;;;;;;;;;25.80;38.60;94220.28;4959082;28;9458;-62
2023/03/05 03:07:44;;;;;;;;;;;;;;;25.76;38.97;94209.53;4987598;28;8949;-62
2023/03/05 03:10:32;;;;;;;;;;;;;;;25.77;38.04;94205.53;5004185;28;9026;-62
2023/03/05 03:13:00;;;;;;;;;;;;;;;25.77;38.15;94204.78;4972922;28;7304;-62
2023/03/05 03:15:26;;;;;;;;;;;;;;;25.77;38.18;94202.78;4963652;28;7058;-62
2023/03/05 03:17:53;;;;;;;;;;;;;;;25.75;38.51;94202.53;4972196;28;7498;-62
2023/03/05 03:20:23;;;;;;;;;;;;;;;25.78;38.90;94196.00;4968509;28;7320;-62
2023/03/05 03:22:49;;;;;;;;;;;;;;;25.77;38.26;94193.78;4961735;28;8308;-62
2023/03/05 03:25:29;;;;;;;;;;;;;;;25.71;38.30;94191.06;4968225;28;9208;-62
2023/03/05 03:28:04;;;;;;;;;;;;;;;25.75;38.54;94194.28;4962797;28;7272;-62
2023/03/05 03:30:30;;;;;;;;;;;;;;;25.75;38.90;94197.03;4976260;28;9213;-62
2023/03/05 03:33:05;;;;;;;;;;;;;;;25.76;39.00;94198.53;4976256;28;9094;-63
2023/03/05 03:35:43;;;;;;;;;;;;;;;25.76;38.10;94190.25;4967627;28;7255;-62
2023/03/05 03:38:13;;;;;;;;;;;;;;;25.76;38.43;94192.28;4975666;28;9561;-62
2023/03/05 03:40:49;;;;;;;;;;;;;;;25.75;38.84;94180.50;4975528;28;9113;-63
2023/03/05 03:43:18;;;;;;;;;;;;;;;25.73;38.40;94185.78;4994478;28;7223;-62
2023/03/05 03:45:47;;;;;;;;;;;;;;;25.74;38.53;94184.53;4967958;28;9077;-62
2023/03/05 03:48:21;;;;;;;;;;;;;;;25.75;38.19;94179.78;4988696;28;7064;-63
2023/03/05 03:50:58;;;;;;;;;;;;;;;25.72;38.33;94180.78;4973328;28;8323;-63
2023/03/05 03:53:28;;;;;;;;;;;;;;;25.74;38.61;94181.03;4970725;28;8851;-62
2023/03/05 03:56:03;;;;;;;;;;;;;;;25.73;39.10;94174.03;4991766;28;7152;-62
2023/03/05 03:58:42;;;;;;;;;;;;;;;25.73;38.83;94174.75;4975913;28;9816;-63
2023/03/05 04:01:10;;;;;;;;;;;;;;;25.71;38.69;94166.28;4967971;28;7035;-62
2023/03/05 04:03:58;;;;;;;;;;;;;;;25.73;39.23;94163.75;4966585;28;9403;-62
2023/03/05 04:06:35;;;;;;;;;;;;;;;25.75;38.61;94166.72;4961201;28;7031;-62
2023/03/05 04:09:08;;;;;;;;;;;;;;;25.74;38.35;94156.97;4970361;28;9211;-63
2023/03/05 04:11:36;;;;;;;;;;;;;;;25.71;39.11;94158.00;4989759;28;9129;-62
2023/03/05 04:14:04;;;;;;;;;;;;;;;25.70;39.10;94162.03;4957533;28;7543;-63
2023/03/05 04:16:31;;;;;;;;;;;;;;;25.72;38.50;94159.50;4965684;28;7247;-62
2023/03/05 04:19:06;;;;;;;;;;;;;;;25.69;39.04;94155.03;4975629;28;7063;-62
2023/03/05 04:21:38;;;;;;;;;;;;;;;25.71;38.98;94162.78;4967358;28;9021;-63
2023/03/05 04:24:49;;;;;;;;;;;;;;;25.72;38.81;94153.25;4972662;28;9729;-63
2023/03/05 04:27:16;;;;;;;;;;;;;;;25.71;38.80;94152.50;4987891;28;7022;-63
2023/03/05 04:29:43;;;;;;;;;;;;;;;25.72;38.69;94150.50;4982066;28;7124;-62
2023/03/05 04:32:11;;;;;;;;;;;;;;;25.71;38.00;94143.50;4985045;28;9186;-62
2023/03/05 04:34:44;;;;;;;;;;;;;;;25.71;38.97;94146.25;4973067;28;9177;-62
2023/03/05 04:37:50;;;;;;;;;;;;;;;25.72;39.16;94142.97;4965885;28;6974;-63
2023/03/05 04:40:39;;;;;;;;;;;;;;;25.72;38.32;94142.22;4999669;28;7277;-62
2023/03/05 04:43:06;;;;;;;;;;;;;;;25.70;39.03;94133.75;4961021;28;9550;-63
2023/03/05 04:45:33;;;;;;;;;;;;;;;25.69;39.14;94132.97;4965426;28;7413;-63
2023/03/05 04:48:01;;;;;;;;;;;;;;;25.71;38.33;94130.47;4964939;28;9118;-63
2023/03/05 04:50:30;;;;;;;;;;;;;;;25.68;39.28;94137.03;4985386;28;8707;-63
2023/03/05 04:52:56;;;;;;;;;;;;;;;25.70;39.27;94134.50;4956411;28;9324;-63
2023/03/05 04:55:21;;;;;;;;;;;;;;;25.72;39.06;94128.44;4988824;28;6986;-62
2023/03/05 04:57:47;;;;;;;;;;;;;;;25.69;39.14;94127.47;4980847;28;8969;-62
2023/03/05 05:00:20;;;;;;;;;;;;;;;25.70;39.08;94134.50;4972166;28;7256;-62
2023/03/05 05:02:57;;;;;;;;;;;;;;;25.71;38.39;94135.97;4965902;28;7269;-61
2023/03/05 05:05:25;;;;;;;;;;;;;;;25.70;38.87;94137.25;4960485;28;7270;-62
2023/03/05 05:07:56;;;;;;;;;;;;;;;25.71;38.52;94129.72;4970963;28;9397;-62
2023/03/05 05:10:24;;;;;;;;;;;;;;;25.70;39.10;94137.25;4962220;28;7123;-62
2023/03/05 05:12:50;;;;;;;;;;;;;;;25.69;38.44;94135.75;4971186;28;9365;-62
2023/03/05 05:15:19;;;;;;;;;;;;;;;25.69;39.12;94135.00;4963274;28;9060;-62
2023/03/05 05:17:51;;;;;;;;;;;;;;;25.71;38.25;94135.97;4960882;28;9182;-62
2023/03/05 05:20:19;;;;;;;;;;;;;;;25.71;38.73;94138.00;4967147;28;9054;-62
2023/03/05 05:22:47;;;;;;;;;;;;;;;25.72;38.61;94136.72;4964498;28;7619;-62
2023/03/05 05:25:15;;;;;;;;;;;;;;;25.71;38.47;94135.97;4972847;28;9444;-62
2023/03/05 05:27:50;;;;;;;;;;;;;;;25.69;38.66;94135.75;4980007;28;7244;-62
2023/03/05 05:30:23;;;;;;;;;;;;;;;25.70;38.80;94139.25;4960850;28;7517;-62
2023/03/05 05:33:05;;;;;;;;;;;;;;;25.69;38.48;94138.50;4989638;28;10095;-55
2023/03/05 05:35:38;;;;;;;;;;;;;;;25.69;38.89;94138.50;4963580;28;9133;-55
2023/03/05 05:38:15;;;;;;;;;;;;;;;25.69;39.14;94137.75;4963261;28;7346;-55
2023/03/05 05:41:12;;;;;;;;;;;;;;;25.69;39.22;94132.97;4973811;28;9059;-55
2023/03/05 05:43:49;;;;;;;;;;;;;;;25.69;38.60;94127.47;4964241;28;9136;-55
2023/03/05 05:46:27;;;;;;;;;;;;;;;25.68;38.78;94137.03;4948687;28;9020;-55
2023/03/05 05:49:03;;;;;;;;;;;;;;;25.67;38.59;94124.50;4953967;28;9091;-53
2023/03/05 05:51:29;;;;;;;;;;;;;;;25.67;39.30;94124.50;4944799;28;7102;-55
2023/03/05 05:53:55;;;;;;;;;;;;;;;25.68;39.28;94116.97;4964835;28;8803;-55
2023/03/05 05:56:22;;;;;;;;;;;;;;;25.67;39.09;94112.72;4948313;28;8613;-55
2023/03/05 05:58:59;;;;;;;;;;;;;;;25.65;38.44;94109.75;4957042;28;9040;-54
2023/03/05 06:01:34;;;;;;;;;;;;;;;25.66;38.52;94112.00;4970844;28;7476;-55
2023/03/05 06:04:03;;;;;;;;;;;;;;;25.64;39.24;94111.03;4946849;28;9057;-56
2023/03/05 06:06:33;;;;;;;;;;;;;;;25.64;38.94;94117.28;4963316;28;7992;-55
2023/03/05 06:09:20;;;;;;;;;;;;;;;25.65;38.78;94116.00;4954431;28;9047;-55
2023/03/05 06:11:57;;;;;;;;;;;;;;;25.66;38.74;94114.00;4949556;28;9157;-55
2023/03/05 06:14:44;;;;;;;;;;;;;;;25.65;39.07;94118.75;4956991;28;8731;-55
2023/03/05 06:17:12;;;;;;;;;;;;;;;25.66;39.23;94111.25;4952833;28;8091;-54
2023/03/05 06:19:39;;;;;;;;;;;;;;;25.66;38.57;94111.25;4952670;28;7358;-55
2023/03/05 06:22:16;;;;;;;;;;;;;;;25.65;39.24;94110.50;5005573;28;9605;-55
2023/03/05 06:24:50;;;;;;;;;;;;;;;25.64;39.30;94114.53;4972639;28;7358;-55
2023/03/05 06:27:28;;;;;;;;;;;;;;;25.63;39.37;94104.75;4973985;28;7342;-55
2023/03/05 06:29:58;;;;;;;;;;;;;;;25.63;39.10;94118.53;4974177;28;8819;-55
2023/03/05 06:32:35;;;;;;;;;;;;;;;25.64;39.17;94114.53;4965897;28;9204;-55
2023/03/05 06:35:05;;;;;;;;;;;;;;;25.64;39.36;94109.03;4999894;28;9061;-55
2023/03/05 06:37:39;;;;;;;;;;;;;;;25.64;38.57;94100.75;4963314;28;8645;-55
2023/03/05 06:40:08;;;;;;;;;;;;;;;25.65;38.97;94105.00;4967783;28;9680;-55
2023/03/05 06:42:34;;;;;;;;;;;;;;;25.68;38.55;94103.22;4970216;28;9069;-54
2023/03/05 06:45:04;;;;;;;;;;;;;;;25.66;38.59;94106.50;4971910;28;7025;-55
2023/03/05 06:47:40;;;;;;;;;;;;;;;25.69;38.46;94094.41;4965326;28;7281;-55
2023/03/05 06:50:08;;;;;;;;;;;;;;;25.69;39.02;94105.44;4964786;28;7051;-55
2023/03/05 06:52:48;;;;;;;;;;;;;;;25.70;38.57;94098.69;4978664;28;9113;-54
2023/03/05 06:55:28;;;;;;;;;;;;;;;25.70;38.85;94092.41;4974681;28;9032;-54
2023/03/05 06:58:10;;;;;;;;;;;;;;;25.69;38.94;94088.91;4970469;28;6978;-52
2023/03/05 07:01:11;;;;;;;;;;;;;;;25.71;39.53;94080.88;4979938;28;7193;-55
2023/03/05 07:03:54;;;;;;;;;;;;;;;25.69;38.64;94091.66;4966433;28;8689;-55
2023/03/05 07:06:37;;;;;;;;;;;;;;;25.72;39.46;94087.13;4967745;28;9142;-55
2023/03/05 07:09:05;;;;;;;;;;;;;;;25.71;39.34;94083.63;4953584;28;9004;-54
2023/03/05 07:11:31;;;;;;;;;;;;;;;25.72;38.32;94093.41;4953517;28;7397;-55
2023/03/05 07:14:09;;;;;;;;;;;;;;;25.77;37.96;94086.34;4955423;28;7036;-55
2023/03/05 07:16:36;;;;;;;;;;;;;;;25.73;38.60;94092.13;4954375;28;9010;-55
2023/03/05 07:19:09;;;;;;;;;;;;;;;25.73;38.19;94094.88;4954890;28;7044;-54
2023/03/05 07:21:42;;;;;;;;;;;;;;;25.73;38.49;94089.38;4955517;28;7039;-55
2023/03/05 07:24:12;;;;;;;;;;;;;;;25.75;38.29;94086.09;4964562;28;7084;-55
2023/03/05 07:27:11;;;;;;;;;;;;;;;25.75;38.88;94086.84;4944155;28;7305;-55
2023/03/05 07:29:39;;;;;;;;;;;;;;;25.76;38.68;94082.81;4897711;29;9805;-55
2023/03/05 07:32:14;;;;;;;;;;;;;;;25.76;38.49;94082.06;4898759;29;9464;-55
2023/03/05 07:34:52;;;;;;;;;;;;;;;25.77;39.12;94080.81;4903332;29;8785;-55
2023/03/05 07:37:29;;;;;;;;;;;;;;;25.77;38.88;94084.34;4898936;29;9009;-55
2023/03/05 07:39:57;;;;;;;;;;;;;;;25.81;38.96;94093.03;4923576;29;7290;-55
2023/03/05 07:42:23;;;;;;;;;;;;;;;25.77;38.97;94089.84;4942343;28;7239;-55
2023/03/05 07:44:52;;;;;;;;;;;;;;;25.76;38.75;94090.34;4926629;29;7074;-55
2023/03/05 07:47:38;;;;;;;;;;;;;;;25.76;38.62;94090.34;4913861;29;9149;-55
2023/03/05 07:50:25;;;;;;;;;;;;;;;25.75;39.48;94084.06;4923642;29;7080;-55
2023/03/05 07:53:09;;;;;;;;;;;;;;;25.74;38.85;94070.84;4932217;29;7046;-55
2023/03/05 07:55:42;;;;;;;;;;;;;;;25.78;39.24;94072.03;4934560;29;8926;-55
2023/03/05 07:58:17;;;;;;;;;;;;;;;25.77;38.76;94069.81;4907012;29;7812;-55
2023/03/05 08:00:55;;;;;;;;;;;;;;;25.79;38.87;94070.78;4925034;29;7680;-55
2023/03/05 08:03:32;;;;;;;;;;;;;;;25.80;38.35;94072.25;4923924;29;9591;-55
2023/03/05 08:06:28;;;;;;;;;;;;;;;25.80;39.63;94069.50;4968123;28;7308;-55
2023/03/05 08:09:17;;;;;;;;;;;;;;;25.83;38.87;94068.47;4945157;28;7256;-55
2023/03/05 08:12:23;;;;;;;;;;;;;;;25.83;38.61;94060.19;4981626;28;7297;-56
2023/03/05 08:15:17;;;;;;;;;;;;;;;25.83;38.85;94070.47;4970052;28;9202;-55
2023/03/05 08:17:44;;;;;;;;;;;;;;;25.81;39.40;94062.75;4973248;28;7266;-55
2023/03/05 08:20:11;;;;;;;;;;;;;;;25.83;39.30;94064.97;4955736;28;7286;-55
2023/03/05 08:22:38;;;;;;;;;;;;;;;25.87;39.06;94068.16;4967487;28;8779;-55
2023/03/05 08:25:14;;;;;;;;;;;;;;;25.88;38.75;94062.13;4956327;28;8747;-55
2023/03/05 08:28:15;;;;;;;;;;;;;;;25.93;39.22;94058.56;4954068;28;7516;-55
2023/03/05 08:30:50;;;;;;;;;;;;;;;25.95;38.47;94055.28;4954521;28;8807;-55
2023/03/05 08:33:24;;;;;;;;;;;;;;;25.97;38.85;94053.50;4940047;28;7256;-55
2023/03/05 08:35:51;;;;;;;;;;;;;;;25.98;38.58;94051.50;4952958;28;7154;-55
2023/03/05 08:38:17;;;;;;;;;;;;;;;25.97;39.17;94044.47;4949298;28;9351;-55
2023/03/05 08:40:43;;;;;;;;;;;;;;;26.00;39.24;94052.47;4937423;28;9336;-55
2023/03/05 08:43:10;;;;;;;;;;;;;;;26.03;39.18;94047.94;4931701;28;9043;-55
2023/03/05 08:45:38;;;;;;;;;;;;;;;26.03;39.22;94037.63;4950184;28;7359;-55
2023/03/05 08:48:08;;;;;;;;;;;;;;;25.98;39.25;94041.22;4948983;28;9394;-55
2023/03/05 08:50:35;;;;;;;;;;;;;;;26.03;39.12;94039.66;4954164;28;7527;-55
2023/03/05 08:53:01;;;;;;;;;;;;;;;26.03;38.91;94039.66;4965840;28;7064;-55
2023/03/05 08:55:30;;;;;;;;;;;;;;;25.97;38.71;94042.47;4941648;28;7365;-53
2023/03/05 08:58:07;;;;;;;;;;;;;;;25.95;39.33;94044.25;4947634;28;9114;-55
2023/03/05 09:00:42;;;;;;;;;;;;;;;25.93;39.25;94044.03;4937353;28;9042;-53
2023/03/05 09:03:41;;;;;;;;;;;;;;;25.91;39.48;94039.06;4953814;28;9295;-55
2023/03/05 09:06:11;;;;;;;;;;;;;;;25.88;39.41;94042.84;4955762;28;7452;-54
2023/03/05 09:08:38;;;;;;;;;;;;;;;25.88;38.98;94044.88;4973034;28;9520;-52
2023/03/05 09:11:06;;;;;;;;;;;;;;;25.87;39.24;94041.38;5003032;28;7237;-54
2023/03/05 09:13:59;;;;;;;;;;;;;;;25.88;39.75;94040.09;4967886;28;6987;-55
2023/03/05 09:16:26;;;;;;;;;;;;;;;25.94;39.67;94035.25;4926561;28;7212;-54
2023/03/05 09:18:52;;;;;;;;;;;;;;;25.96;39.27;94037.50;4917269;29;9127;-55
2023/03/05 09:21:45;;;;;;;;;;;;;;;25.90;39.68;94032.03;4918464;29;8678;-55
2023/03/05 09:24:20;;;;;;;;;;;;;;;25.87;39.17;94035.84;4900171;29;7102;-55
2023/03/05 09:26:48;;;;;;;;;;;;;;;25.88;39.55;94029.06;4912729;29;7006;-54
2023/03/05 09:29:14;;;;;;;;;;;;;;;25.89;39.40;94027.06;4933339;28;7019;-55
2023/03/05 09:31:40;;;;;;;;;;;;;;;25.85;39.31;94019.09;4944185;28;9096;-55
2023/03/05 09:34:07;;;;;;;;;;;;;;;25.82;38.37;94011.88;4930092;28;7293;-55
2023/03/05 09:36:33;;;;;;;;;;;;;;;25.83;39.26;94007.09;4929066;29;8410;-54
2023/03/05 09:39:17;;;;;;;;;;;;;;;25.81;38.88;94006.88;4930059;29;7340;-55
2023/03/05 09:42:01;;;;;;;;;;;;;;;25.88;39.30;94018.03;4933967;29;9656;-54
2023/03/05 09:45:12;;;;;;;;;;;;;;;25.93;38.96;94016.47;4931014;29;6930;-55
2023/03/05 09:48:17;;;;;;;;;;;;;;;25.93;38.74;94013.72;4913734;29;8697;-55
2023/03/05 09:50:49;;;;;;;;;;;;;;;25.96;39.10;94009.94;4913731;29;7359;-53
2023/03/05 09:53:49;;;;;;;;;;;;;;;25.93;38.63;94008.97;4936229;28;7050;-52
2023/03/05 09:56:27;;;;;;;;;;;;;;;25.94;38.78;94004.19;4962097;28;7088;-54
2023/03/05 09:59:29;;;;;;;;;;;;;;;25.94;39.05;94001.44;4963600;28;7109;-54
2023/03/05 10:02:29;;;;;;;;;;;;;;;25.96;39.19;94005.19;4983218;28;8710;-54
2023/03/05 10:05:16;;;;;;;;;;;;;;;25.99;38.86;94006.88;4920160;29;7327;-53
2023/03/05 10:08:12;;;;;;;;;;;;;;;26.03;39.26;94010.06;4929538;29;7268;-55
2023/03/05 10:10:52;;;;;;;;;;;;;;;26.01;39.40;93998.09;4868301;29;7028;-55
2023/03/05 10:13:25;;;;;;;;;;;;;;;26.05;38.87;93999.28;4874529;29;9090;-54
2023/03/05 10:16:01;;;;;;;;;;;;;;;26.04;39.30;93992.28;4879047;29;9017;-55
2023/03/05 10:18:45;;;;;;;;;;;;;;;26.05;38.59;93993.03;4882397;29;8701;-55
2023/03/05 10:22:02;;;;;;;;;;;;;;;26.08;39.34;93989.97;4888034;29;7306;-55
2023/03/05 10:25:06;;;;;;;;;;;;;;;26.12;38.75;93982.16;4865923;29;7109;-55
2023/03/05 10:27:50;;;;;;;;;;;;;;;26.12;38.76;93979.41;4871980;29;9313;-55
2023/03/05 10:30:26;;;;;;;;;;;;;;;26.12;39.42;93982.16;4873889;29;7189;-55
2023/03/05 10:33:30;;;;;;;;;;;;;;;26.16;39.25;93982.59;4875124;29;8601;-55
2023/03/05 10:36:16;;;;;;;;;;;;;;;26.09;39.42;93974.94;4853386;29;7891;-55
2023/03/05 10:39:26;;;;;;;;;;;;;;;26.13;38.48;93967.13;4853548;29;7715;-55
2023/03/05 10:42:01;;;;;;;;;;;;;;;26.14;38.40;93967.88;4861304;29;9010;-54
2023/03/05 10:44:39;;;;;;;;;;;;;;;26.12;39.33;93971.13;4888961;29;7676;-55
2023/03/05 10:47:19;;;;;;;;;;;;;;;26.16;39.04;93963.28;4892378;29;7518;-55
2023/03/05 10:49:51;;;;;;;;;;;;;;;26.16;38.79;93966.06;4921129;29;7078;-55
2023/03/05 10:52:45;;;;;;;;;;;;;;;26.13;39.07;93950.56;4907066;29;7294;-55
2023/03/05 10:55:17;;;;;;;;;;;;;;;26.14;38.95;93952.06;4920965;28;9211;-54
2023/03/05 10:57:52;;;;;;;;;;;;;;;26.16;38.70;93952.25;4922073;29;7056;-54
2023/03/05 11:00:22;;;;;;;;;;;;;;;26.19;38.56;93949.75;4912997;29;7101;-55
2023/03/05 11:02:58;;;;;;;;;;;;;;;26.20;38.31;93954.72;4906776;29;9003;-55
2023/03/05 11:05:39;;;;;;;;;;;;;;;26.19;38.64;93944.97;4908567;29;7712;-55
2023/03/05 11:08:28;;;;;;;;;;;;;;;26.12;38.04;93940.81;4909638;29;9439;-55
2023/03/05 11:11:17;;;;;;;;;;;;;;;26.10;38.04;93948.84;4941777;28;9359;-55
2023/03/05 11:13:57;;;;;;;;;;;;;;;26.11;38.54;93946.84;4981564;28;9093;-55
2023/03/05 11:16:46;;;;;;;;;;;;;;;26.09;39.54;93944.63;4971587;28;9188;-58
2023/03/05 11:19:36;;;;;;;;;;;;;;;26.07;39.11;93943.63;4986147;28;7373;-55
2023/03/05 11:22:31;;;;;;;;;;;;;;;26.06;39.92;93942.13;4961459;28;7294;-55
2023/03/05 11:25:14;;;;;;;;;;;;;;;26.03;40.68;93935.66;4971181;28;9160;-55
2023/03/05 11:27:55;;;;;;;;;;;;;;;26.01;40.37;93932.69;4972991;28;9396;-55
2023/03/05 11:30:26;;;;;;;;;;;;;;;26.01;40.98;93921.66;4988762;28;7363;-54
2023/03/05 11:33:19;;;;;;;;;;;;;;;26.06;40.83;93915.31;4969639;28;7109;-55
2023/03/05 11:35:48;;;;;;;;;;;;;;;26.07;41.25;93916.81;4964950;28;9006;-54
2023/03/05 11:38:26;;;;;;;;;;;;;;;26.07;40.92;93908.56;4996193;28;8859;-53
2023/03/05 11:41:00;;;;;;;;;;;;;;;26.11;40.24;93916.53;4986880;28;7373;-54
2023/03/05 11:43:42;;;;;;;;;;;;;;;26.10;40.07;93913.03;4967950;28;9352;-54
2023/03/05 11:46:12;;;;;;;;;;;;;;;26.13;39.88;93905.72;4970510;28;7031;-55
2023/03/05 11:48:46;;;;;;;;;;;;;;;26.16;40.26;93902.66;4972614;28;8069;-55
2023/03/05 11:51:51;;;;;;;;;;;;;;;26.17;39.45;93901.41;4963749;28;9417;-55
2023/03/05 11:54:28;;;;;;;;;;;;;;;26.16;39.48;93888.88;4970427;28;7039;-55
2023/03/05 11:57:03;;;;;;;;;;;;;;;26.16;38.90;93891.63;4971021;28;7643;-55
2023/03/05 11:59:39;;;;;;;;;;;;;;;26.19;39.63;93891.88;4983028;28;7299;-55
2023/03/05 12:02:26;;;;;;;;;;;;;;;26.20;38.68;93887.81;4983865;28;9143;-55
2023/03/05 12:05:21;;;;;;;;;;;;;;;26.19;39.08;93881.56;4998368;28;9801;-55
2023/03/05 12:07:54;;;;;;;;;;;;;;;26.19;39.03;93881.56;4970143;28;8992;-55
2023/03/05 12:10:24;;;;;;;;;;;;;;;26.19;39.80;93876.06;4954132;28;8142;-54
2023/03/05 12:13:03;;;;;;;;;;;;;;;26.22;38.99;93872.25;4963781;28;7300;-54
2023/03/05 12:15:41;;;;;;;;;;;;;;;26.16;39.40;93872.31;4967890;28;7405;-55
2023/03/05 12:18:17;;;;;;;;;;;;;;;26.14;38.77;93869.34;4948856;28;7826;-55
2023/03/05 12:21:03;;;;;;;;;;;;;;;26.16;39.40;93863.34;4969487;28;7046;-55
2023/03/05 12:23:44;;;;;;;;;;;;;;;26.22;38.98;93860.47;4964065;28;9112;-55
2023/03/05 12:26:13;;;;;;;;;;;;;;;26.20;38.91;93857.50;4955951;28;7263;-55
2023/03/05 12:28:42;;;;;;;;;;;;;;;26.23;38.94;93862.69;4952405;28;9138;-55
2023/03/05 12:31:08;;;;;;;;;;;;;;;26.23;38.95;93850.94;4967857;28;7238;-55
2023/03/05 12:33:40;;;;;;;;;;;;;;;26.23;39.37;93842.69;4958448;28;7036;-55
2023/03/05 12:36:45;;;;;;;;;;;;;;;26.25;38.87;93842.88;4963147;28;7151;-55
2023/03/05 12:39:53;;;;;;;;;;;;;;;26.25;38.95;93835.38;4916741;29;9110;-55
2023/03/05 12:42:28;;;;;;;;;;;;;;;26.28;39.34;93833.53;4876373;29;7145;-55
2023/03/05 12:45:10;;;;;;;;;;;;;;;26.30;38.63;93825.50;4844249;29;8376;-56
2023/03/05 12:48:11;;;;;;;;;;;;;;;26.31;38.65;93827.72;4875538;29;9755;-56
2023/03/05 12:51:25;;;;;;;;;;;;;;;26.30;38.66;93819.97;4856049;29;8994;-56
2023/03/05 12:53:55;;;;;;;;;;;;;;;26.30;38.52;93817.22;4876961;29;9056;-56
2023/03/05 12:56:31;;;;;;;;;;;;;;;26.30;39.14;93814.47;4862758;29;7360;-54
2023/03/05 12:59:19;;;;;;;;;;;;;;;26.30;38.85;93808.94;4876514;29;6988;-55
2023/03/05 13:01:54;;;;;;;;;;;;;;;26.30;39.07;93801.41;4865299;29;7318;-55
2023/03/05 13:04:38;;;;;;;;;;;;;;;26.30;39.04;93800.69;4872404;29;9676;-55
2023/03/05 13:07:16;;;;;;;;;;;;;;;26.32;38.37;93796.13;4864414;29;9260;-55
2023/03/05 13:09:56;;;;;;;;;;;;;;;26.35;38.76;93799.84;4878063;29;9038;-54
2023/03/05 13:12:48;;;;;;;;;;;;;;;26.39;38.33;93789.22;4886831;29;7372;-54
2023/03/05 13:15:34;;;;;;;;;;;;;;;26.40;39.19;93787.97;4918301;29;7161;-54
2023/03/05 13:18:06;;;;;;;;;;;;;;;26.42;38.60;93790.94;4912058;29;7198;-55
2023/03/05 13:21:06;;;;;;;;;;;;;;;26.44;38.90;93786.38;4949293;28;9367;-54
2023/03/05 13:24:03;;;;;;;;;;;;;;;26.47;39.05;93782.53;4965371;28;8296;-55
2023/03/05 13:26:39;;;;;;;;;;;;;;;26.47;38.58;93776.31;4970869;28;8824;-55
2023/03/05 13:29:20;;;;;;;;;;;;;;;26.49;38.98;93776.53;4953796;28;7123;-54
2023/03/05 13:31:50;;;;;;;;;;;;;;;26.51;38.41;93766.41;4968122;28;7604;-54
2023/03/05 13:34:36;;;;;;;;;;;;;;;26.52;38.61;93764.41;4971996;28;7889;-54
2023/03/05 13:37:30;;;;;;;;;;;;;;;26.53;39.18;93765.91;4970744;28;7237;-54
2023/03/05 13:40:22;;;;;;;;;;;;;;;26.50;39.24;93764.94;4967792;28;9052;-55
2023/03/05 13:42:49;;;;;;;;;;;;;;;26.54;38.52;93764.63;4933806;28;7268;-55
2023/03/05 13:45:24;;;;;;;;;;;;;;;26.52;38.91;93759.63;4934412;29;7409;-54
2023/03/05 13:47:59;;;;;;;;;;;;;;;26.53;39.31;93754.88;4933988;29;9120;-54